createdAt,value
2022-08-30T00:03:14.713Z,21.97
2022-08-30T00:08:17.962Z,22.51
2022-08-30T00:13:22.580Z,21.14
2022-08-30T00:18:25.532Z,20.21
2022-08-30T00:23:29.092Z,19.62
2022-08-30T00:28:34.066Z,19.16
2022-08-30T00:33:37.545Z,18.79
2022-08-30T00:38:40.463Z,18.47
2022-08-30T00:43:43.417Z,19.24
2022-08-30T00:48:49.603Z,22.12
2022-08-30T00:53:57.111Z,22.89
2022-08-30T00:59:05.657Z,21.30
2022-08-30T01:04:10.202Z,20.32
2022-08-30T01:09:14.520Z,19.71
2022-08-30T01:14:18.442Z,19.22
2022-08-30T01:19:53.933Z,18.82
2022-08-30T01:25:01.444Z,18.44
2022-08-30T01:30:07.653Z,19.17
2022-08-30T01:35:14.318Z,21.57
2022-08-30T01:40:19.895Z,22.37
2022-08-30T01:45:22.940Z,21.04
2022-08-30T01:50:25.937Z,20.08
2022-08-30T01:55:28.924Z,19.48
2022-08-30T02:00:32.577Z,19.02
2022-08-30T02:05:35.561Z,18.65
2022-08-30T02:10:38.475Z,19.22
2022-08-30T02:15:42.271Z,21.58
2022-08-30T02:20:45.184Z,22.16
2022-08-30T02:25:48.107Z,20.79
2022-08-30T02:30:51.811Z,19.88
2022-08-30T02:35:56.243Z,19.31
2022-08-30T02:40:59.305Z,18.87
2022-08-30T02:46:02.570Z,18.50
2022-08-30T02:51:11.394Z,19.16
2022-08-30T02:56:15.722Z,21.56
2022-08-30T03:01:19.126Z,22.14
2022-08-30T03:06:22.076Z,20.75
2022-08-30T03:11:25.254Z,19.82
2022-08-30T03:16:28.133Z,19.24
2022-08-30T03:21:30.900Z,18.80
2022-08-30T03:26:33.651Z,18.44
2022-08-30T03:31:37.740Z,18.13
2022-08-30T03:36:56.545Z,17.87
2022-08-30T03:41:59.472Z,18.76
2022-08-30T03:47:02.486Z,21.21
2022-08-30T03:52:05.901Z,22.43
2022-08-30T03:57:08.812Z,22.25
2022-08-30T04:02:20.855Z,20.76
2022-08-30T04:07:23.678Z,19.89
2022-08-30T04:12:27.340Z,19.30
2022-08-30T04:17:30.256Z,18.84
2022-08-30T04:22:33.244Z,18.45
2022-08-30T04:27:36.292Z,19.19
2022-08-30T04:32:40.278Z,21.66
2022-08-30T04:37:43.230Z,22.72
2022-08-30T04:42:46.550Z,21.46
2022-08-30T04:47:49.588Z,20.40
2022-08-30T04:52:52.521Z,19.71
2022-08-30T04:57:56.686Z,19.20
2022-08-30T05:03:00.826Z,19.77
2022-08-30T05:08:04.363Z,22.03
2022-08-30T05:13:08.107Z,23.20
2022-08-30T05:18:14.241Z,22.99
2022-08-30T05:23:17.811Z,21.49
2022-08-30T05:28:24.312Z,20.62
2022-08-30T05:33:29.549Z,20.02
2022-08-30T05:38:32.467Z,20.53
2022-08-30T05:43:36.640Z,22.74
2022-08-30T05:48:40.895Z,23.87
2022-08-30T05:53:45.140Z,23.19
2022-08-30T05:58:48.496Z,21.90
2022-08-30T06:03:55.254Z,21.14
2022-08-30T06:08:58.737Z,20.61
2022-08-30T06:14:02.632Z,21.11
2022-08-30T06:19:08.616Z,23.27
2022-08-30T06:24:12.456Z,24.27
2022-08-30T06:29:19.015Z,23.31
2022-08-30T06:34:22.030Z,22.07
2022-08-30T06:39:24.912Z,21.38
2022-08-30T06:44:27.981Z,20.89
2022-08-30T06:49:33.705Z,21.43
2022-08-30T06:54:36.646Z,23.55
2022-08-30T06:59:40.268Z,24.52
2022-08-30T07:04:43.214Z,23.72
2022-08-30T07:09:46.287Z,22.38
2022-08-30T07:14:49.535Z,21.63
2022-08-30T07:19:52.565Z,21.19
2022-08-30T07:24:55.316Z,20.96
2022-08-30T07:29:58.941Z,20.79
2022-08-30T07:35:01.889Z,21.71
2022-08-30T07:40:05.309Z,24.09
2022-08-30T07:45:10.413Z,25.03
2022-08-30T07:50:13.990Z,23.95
2022-08-30T07:55:17.220Z,23.01
2022-08-30T08:00:20.618Z,22.47
2022-08-30T08:05:24.903Z,22.07
2022-08-30T08:10:28.086Z,21.80
2022-08-30T08:15:33.013Z,22.07
2022-08-30T08:20:36.422Z,24.25
2022-08-30T08:25:41.227Z,24.85
2022-08-30T08:30:48.147Z,23.63
2022-08-30T08:35:51.434Z,22.81
2022-08-30T08:41:10.623Z,22.25
2022-08-30T08:46:28.599Z,22.28
2022-08-30T08:51:54.570Z,24.24
2022-08-30T08:56:57.559Z,23.50
2022-08-30T09:02:03.272Z,22.45
2022-08-30T09:07:20.385Z,21.82
2022-08-30T09:12:23.336Z,21.63
2022-08-30T09:17:26.183Z,23.60
2022-08-30T09:22:46.668Z,24.88
2022-08-30T09:27:52.796Z,23.75
2022-08-30T09:33:22.657Z,22.93
2022-08-30T09:38:34.452Z,22.49
2022-08-30T09:43:37.326Z,22.28
2022-08-30T09:48:47.560Z,22.33
2022-08-30T09:54:26.335Z,24.28
2022-08-30T10:00:03.891Z,24.01
2022-08-30T10:05:48.619Z,23.17
2022-08-30T10:11:19.510Z,22.87
2022-08-30T10:17:13.599Z,22.58
2022-08-30T10:22:30.351Z,22.22
2022-08-30T10:27:45.991Z,22.02
2022-08-30T10:33:06.831Z,21.86
2022-08-30T10:38:46.839Z,21.77
2022-08-30T10:44:13.726Z,21.69
2022-08-30T10:49:27.707Z,21.51
2022-08-30T10:54:47.592Z,21.34
2022-08-30T10:59:58.660Z,22.18
2022-08-30T11:05:36.272Z,24.29
2022-08-30T11:10:58.455Z,23.45
2022-08-30T11:16:11.268Z,22.70
2022-08-30T11:21:38.328Z,22.36
2022-08-30T11:26:48.519Z,22.10
2022-08-30T11:31:51.713Z,21.97
2022-08-30T11:36:55.162Z,21.95
2022-08-30T11:42:32.078Z,21.94
2022-08-30T11:47:48.344Z,21.82
2022-08-30T11:53:03.208Z,21.68
2022-08-30T11:58:20.523Z,21.55
2022-08-30T12:03:33.890Z,21.45
2022-08-30T12:08:55.115Z,21.37
2022-08-30T12:14:08.243Z,21.33
2022-08-30T12:19:21.253Z,21.33
2022-08-30T12:24:51.746Z,21.36
2022-08-30T12:30:03.059Z,21.37
2022-08-30T12:35:07.589Z,22.17
2022-08-30T12:40:23.152Z,23.73
2022-08-30T12:45:43.085Z,22.82
2022-08-30T12:50:53.956Z,22.23
2022-08-30T12:56:12.811Z,21.92
2022-08-30T13:01:27.573Z,21.69
2022-08-30T13:06:52.787Z,21.53
2022-08-30T13:11:56.712Z,21.42
2022-08-30T13:17:09.806Z,21.32
2022-08-30T13:22:28.079Z,21.27
2022-08-30T13:27:36.956Z,21.25
2022-08-30T13:32:40.398Z,21.22
2022-08-30T13:37:50.090Z,21.19
2022-08-30T13:42:53.964Z,21.16
2022-08-30T13:47:56.767Z,21.18
2022-08-30T13:52:59.647Z,21.18
2022-08-30T13:58:02.977Z,21.14
2022-08-30T14:03:05.903Z,21.39
2022-08-30T14:13:35.562Z,24.37
2022-08-30T14:18:39.913Z,23.15
2022-08-30T14:23:42.937Z,22.42
2022-08-30T14:28:46.498Z,21.94
2022-08-30T14:33:54.637Z,21.59
2022-08-30T14:38:58.378Z,21.33
2022-08-30T14:44:01.393Z,21.15
2022-08-30T14:49:05.777Z,21.00
2022-08-30T14:54:10.394Z,20.88
2022-08-30T14:59:14.240Z,20.80
2022-08-30T15:04:17.802Z,20.70
2022-08-30T15:09:26.025Z,20.61
2022-08-30T15:14:31.535Z,20.56
2022-08-30T15:19:34.473Z,20.51
2022-08-30T15:24:37.417Z,20.48
2022-08-30T15:29:40.312Z,20.45
2022-08-30T15:34:43.675Z,20.42
2022-08-30T15:39:58.102Z,20.39
2022-08-30T15:45:01.863Z,20.38
2022-08-30T15:50:07.320Z,20.36
2022-08-30T15:55:10.455Z,20.33
2022-08-30T16:00:14.781Z,20.29
2022-08-30T16:05:18.026Z,20.23
2022-08-30T16:10:21.366Z,20.19
2022-08-30T16:15:24.447Z,20.14
2022-08-30T16:20:27.804Z,20.09
2022-08-30T16:25:40.841Z,20.98
2022-08-30T16:30:44.498Z,23.47
2022-08-30T16:35:57.262Z,23.68
2022-08-30T16:41:09.110Z,22.46
2022-08-30T16:46:17.668Z,21.76
2022-08-30T16:51:25.155Z,21.32
2022-08-30T16:56:31.002Z,21.02
2022-08-30T17:01:42.375Z,20.77
2022-08-30T17:06:47.955Z,20.57
2022-08-30T17:11:53.214Z,20.37
2022-08-30T17:17:00.654Z,20.22
2022-08-30T17:22:04.266Z,20.42
2022-08-30T17:27:07.681Z,22.73
2022-08-30T17:32:10.803Z,23.53
2022-08-30T17:37:16.377Z,22.25
2022-08-30T17:42:19.997Z,21.43
2022-08-30T17:47:23.410Z,20.90
2022-08-30T17:52:28.108Z,20.53
2022-08-30T17:57:31.509Z,20.26
2022-08-30T18:02:34.466Z,20.02
2022-08-30T18:07:37.330Z,19.85
2022-08-30T18:12:40.256Z,19.71
2022-08-30T18:17:47.862Z,20.58
2022-08-30T18:22:50.759Z,23.00
2022-08-30T18:27:59.016Z,23.60
2022-08-30T18:33:02.766Z,22.30
2022-08-30T18:38:06.008Z,21.48
2022-08-30T18:43:10.083Z,20.97
2022-08-30T18:48:14.455Z,20.59
2022-08-30T18:53:28.349Z,20.30
2022-08-30T18:58:32.063Z,20.04
2022-08-30T19:03:35.659Z,19.85
2022-08-30T19:08:41.482Z,19.73
2022-08-30T19:13:48.849Z,21.61
2022-08-30T19:18:54.505Z,23.53
2022-08-30T19:23:57.489Z,23.78
2022-08-30T19:29:01.736Z,22.42
2022-08-30T19:34:05.297Z,21.57
2022-08-30T19:39:10.094Z,21.01
2022-08-30T19:44:13.260Z,20.57
2022-08-30T19:49:16.363Z,20.22
2022-08-30T19:54:19.640Z,19.93
2022-08-30T19:59:22.849Z,19.71
2022-08-30T20:04:26.970Z,19.54
2022-08-30T20:09:29.894Z,19.40
2022-08-30T20:14:32.845Z,20.31
2022-08-30T20:19:36.151Z,22.74
2022-08-30T20:24:43.433Z,23.74
2022-08-30T20:29:46.967Z,22.62
2022-08-30T20:34:50.376Z,21.71
2022-08-30T20:39:57.311Z,21.16
2022-08-30T20:45:00.493Z,20.70
2022-08-30T20:50:13.568Z,20.30
2022-08-30T20:55:17.551Z,19.96
2022-08-30T21:00:20.696Z,19.70
2022-08-30T21:05:24.805Z,20.48
2022-08-30T21:10:28.089Z,22.77
2022-08-30T21:15:37.704Z,23.67
2022-08-30T21:20:41.828Z,22.48
2022-08-30T21:25:44.755Z,21.43
2022-08-30T21:30:47.689Z,20.82
2022-08-30T21:36:09.602Z,20.36
2022-08-30T21:41:13.635Z,19.96
2022-08-30T21:46:17.923Z,19.64
2022-08-30T21:51:21.689Z,20.37
2022-08-30T21:56:25.112Z,22.65
2022-08-30T22:01:30.717Z,23.69
2022-08-30T22:06:36.054Z,22.69
2022-08-30T22:11:39.528Z,21.50
2022-08-30T22:16:42.618Z,20.80
2022-08-30T22:21:48.083Z,20.29
2022-08-30T22:26:51.689Z,19.89
2022-08-30T22:31:54.733Z,19.56
2022-08-30T22:36:57.701Z,20.27
2022-08-30T22:42:00.885Z,22.52
2022-08-30T22:47:03.858Z,23.52
2022-08-30T22:52:06.811Z,22.33
2022-08-30T22:57:09.814Z,21.17
2022-08-30T23:02:12.818Z,20.49
2022-08-30T23:07:15.705Z,19.99
2022-08-30T23:12:18.668Z,19.59
2022-08-30T23:17:22.406Z,20.29
2022-08-30T23:22:31.676Z,22.59
2022-08-30T23:27:53.506Z,23.54
2022-08-30T23:33:14.840Z,22.20
2022-08-30T23:38:36.292Z,21.03
2022-08-30T23:43:58.249Z,20.34
2022-08-30T23:49:19.905Z,19.81
2022-08-30T23:54:43.240Z,19.41
